Time;durP1;ratioP1;P1;durP2;ratioP2;P2;SDS_P1;SDS_P2;PMS_P1;PMS_P2;Temp;Humidity;BMP_temperature;BMP_pressure;BME280_temperature;BME280_humidity;BME280_pressure;Samples;Min_cycle;Max_cycle;Signal;HPM_P1;HPM_P2
2022/07/13 00:01:00;;;;;;;3.10;2.00;;;;;;;-148.88;77.67;75306.00;5095211;28;20111;-86
2022/07/13 00:03:25;;;;;;;3.50;2.30;;;;;;;-148.88;77.58;75295.84;5096209;28;20119;-87
2022/07/13 00:05:51;;;;;;;3.55;1.70;;;;;;;-148.88;77.12;75289.75;5097083;28;20534;-88
2022/07/13 00:08:25;;;;;;;5.78;2.08;;;;;;;-148.88;76.87;75285.69;5096088;28;20115;-87
2022/07/13 00:10:53;;;;;;;3.75;2.25;;;;;;;-148.88;77.20;75289.75;5096532;28;20030;-86
2022/07/13 00:13:18;;;;;;;5.05;2.10;;;;;;;-148.88;77.01;75285.69;5097023;28;20020;-87
2022/07/13 00:15:44;;;;;;;3.67;2.00;;;;;;;-148.88;77.01;75295.84;5096933;28;20023;-86
2022/07/13 00:18:09;;;;;;;3.80;2.13;;;;;;;-148.88;76.79;75295.84;5095694;28;20032;-86
2022/07/13 00:20:38;;;;;;;4.13;2.35;;;;;;;-148.88;76.88;75297.88;5097124;28;20024;-87
2022/07/13 00:23:03;;;;;;;5.43;2.30;;;;;;;-148.88;76.95;75306.00;5096787;28;20085;-86
2022/07/13 00:25:28;;;;;;;3.25;2.22;;;;;;;-148.88;77.41;75299.91;5096423;28;20031;-87
2022/07/13 00:27:54;;;;;;;4.35;2.30;;;;;;;-148.88;77.48;75299.91;5097144;28;20101;-86
2022/07/13 00:30:22;;;;;;;3.22;2.05;;;;;;;-148.88;77.13;75293.81;5096633;28;20016;-86
2022/07/13 00:32:47;;;;;;;3.17;2.00;;;;;;;-148.88;76.92;75289.75;5095472;28;20047;-86
2022/07/13 00:35:12;;;;;;;2.88;2.00;;;;;;;-148.88;77.09;75295.84;5095130;28;20047;-86
2022/07/13 00:37:38;;;;;;;3.80;1.88;;;;;;;-148.88;77.08;75297.88;5095104;28;20026;-85
2022/07/13 00:40:04;;;;;;;3.38;1.83;;;;;;;-148.88;76.98;75283.66;5096256;28;20028;-86
2022/07/13 00:42:29;;;;;;;3.78;1.80;;;;;;;-148.88;77.29;75283.66;5095469;28;20020;-87
2022/07/13 00:44:57;;;;;;;3.67;1.73;;;;;;;-148.88;78.45;75312.09;5096551;28;20051;-86
2022/07/13 00:47:23;;;;;;;3.83;2.10;;;;;;;-148.88;80.75;75318.19;5095421;28;20024;-86
2022/07/13 00:49:49;;;;;;;2.65;2.20;;;;;;;-148.88;83.87;75350.69;5095985;28;20106;-86
2022/07/13 00:52:15;;;;;;;4.68;2.10;;;;;;;-148.88;87.99;75399.44;5095198;28;20062;-87
2022/07/13 00:54:43;;;;;;;4.13;2.00;;;;;;;-148.88;89.07;75399.44;5095362;28;20058;-87
2022/07/13 00:57:13;;;;;;;2.67;1.83;;;;;;;-148.88;88.69;75377.09;5096436;28;20028;-86
2022/07/13 00:59:39;;;;;;;3.85;2.00;;;;;;;-148.88;87.14;75368.97;5095644;28;20115;-87
2022/07/13 01:02:04;;;;;;;2.83;1.95;;;;;;;-148.88;86.15;75352.72;5096348;28;20063;-86
2022/07/13 01:04:32;;;;;;;3.88;1.85;;;;;;;-148.88;85.33;75348.66;5095146;28;20031;-86
2022/07/13 01:06:58;;;;;;;4.80;1.88;;;;;;;-148.88;84.17;75346.63;5094745;28;20028;-87
2022/07/13 01:09:25;;;;;;;2.58;1.70;;;;;;;-148.88;83.33;75338.50;5096705;28;20416;-87
2022/07/13 01:11:52;;;;;;;2.55;1.90;;;;;;;-148.88;82.68;75334.44;5093696;28;20379;-86
2022/07/13 01:14:17;;;;;;;4.05;2.22;;;;;;;-148.88;82.13;75334.44;5094897;28;20062;-86
2022/07/13 01:16:43;;;;;;;2.53;1.75;;;;;;;-148.88;81.63;75326.31;5096036;28;20062;-87
2022/07/13 01:19:11;;;;;;;3.53;1.70;;;;;;;-148.88;81.46;75326.31;5095740;28;20062;-86
2022/07/13 01:21:40;;;;;;;2.45;1.65;;;;;;;-148.88;81.05;75324.28;5095232;28;20051;-87
2022/07/13 01:24:06;;;;;;;2.58;1.80;;;;;;;-148.88;80.39;75310.06;5096169;28;20028;-87
2022/07/13 01:26:31;;;;;;;3.72;2.00;;;;;;;-148.88;80.20;75301.94;5096089;28;20493;-87
2022/07/13 01:28:57;;;;;;;2.65;1.80;;;;;;;-148.88;79.53;75301.94;5095798;28;20027;-87
2022/07/13 01:31:40;;;;;;;2.90;1.90;;;;;;;-148.88;80.31;75297.88;5095641;28;20032;-86
2022/07/13 01:34:06;;;;;;;3.63;1.90;;;;;;;-148.88;80.03;75295.84;5094357;28;20063;-87
2022/07/13 01:36:34;;;;;;;3.60;2.00;;;;;;;-148.88;80.25;75301.94;5094120;28;20028;-87
2022/07/13 01:38:59;;;;;;;3.53;2.10;;;;;;;-148.88;80.24;75306.00;5094308;28;20043;-86
2022/07/13 01:41:27;;;;;;;4.25;1.92;;;;;;;-148.88;80.17;75295.84;5093590;28;20412;-87
2022/07/13 01:43:53;;;;;;;2.70;1.90;;;;;;;-148.88;80.85;75299.91;5093840;28;20024;-86
2022/07/13 01:46:18;;;;;;;3.65;2.20;;;;;;;-148.88;80.91;75293.81;5093975;28;20024;-87
2022/07/13 01:48:43;;;;;;;5.13;2.88;;;;;;;-148.88;81.41;75293.81;5095087;28;20024;-86
2022/07/13 01:51:09;;;;;;;4.65;2.55;;;;;;;-148.88;81.36;75297.88;5093616;28;20023;-86
2022/07/13 01:53:34;;;;;;;4.28;2.47;;;;;;;-148.88;81.67;75303.97;5093824;28;20058;-84
2022/07/13 01:55:59;;;;;;;4.20;2.20;;;;;;;-148.88;82.22;75314.13;5095035;28;20019;-87
2022/07/13 01:58:26;;;;;;;5.03;2.10;;;;;;;-148.88;81.61;75303.97;5093901;28;20059;-86
2022/07/13 02:00:52;;;;;;;3.03;2.00;;;;;;;-148.88;80.91;75310.06;5094035;28;20050;-86
2022/07/13 02:03:17;;;;;;;4.30;2.03;;;;;;;-148.88;80.76;75310.06;5094749;28;20541;-86
2022/07/13 02:05:43;;;;;;;2.90;1.95;;;;;;;-148.88;79.86;75306.00;5095658;28;20028;-87
2022/07/13 02:08:08;;;;;;;3.50;1.83;;;;;;;-148.88;78.17;75297.88;5093502;28;20028;-86
2022/07/13 02:10:36;;;;;;;3.47;1.70;;;;;;;-148.88;78.43;75293.81;5093215;28;20030;-87
2022/07/13 02:13:11;;;;;;;2.70;1.75;;;;;;;-148.88;78.05;75281.66;5094421;28;20052;-86
2022/07/13 02:15:37;;;;;;;2.88;1.70;;;;;;;-148.88;78.38;75281.66;5093234;28;20039;-86
2022/07/13 02:18:03;;;;;;;2.78;1.58;;;;;;;-148.88;77.59;75281.66;5093319;28;20478;-86
2022/07/13 02:20:30;;;;;;;3.65;1.67;;;;;;;-148.88;77.70;75279.59;5094344;28;20032;-86
2022/07/13 02:22:55;;;;;;;2.25;1.52;;;;;;;-148.88;77.56;75277.59;5092658;28;20030;-85
2022/07/13 02:25:21;;;;;;;2.70;1.70;;;;;;;-148.88;77.66;75269.47;5093187;28;20020;-86
2022/07/13 02:27:46;;;;;;;2.35;1.60;;;;;;;-148.88;77.62;75263.38;5094380;28;20024;-87
2022/07/13 02:30:13;;;;;;;3.15;1.90;;;;;;;-148.88;77.19;75265.41;5093575;28;20017;-86
2022/07/13 02:32:39;;;;;;;3.17;1.58;;;;;;;-148.88;77.25;75269.47;5094438;28;20023;-86
2022/07/13 02:35:05;;;;;;;3.70;1.50;;;;;;;-148.88;77.11;75265.41;5092960;28;20115;-87
2022/07/13 02:37:31;;;;;;;3.10;1.50;;;;;;;-148.88;77.51;75261.34;5094090;28;20168;-87
2022/07/13 02:39:56;;;;;;;2.35;1.67;;;;;;;-148.88;76.62;75265.41;5093841;28;20027;-86
2022/07/13 02:42:25;;;;;;;3.22;1.60;;;;;;;-148.88;76.72;75259.31;5093508;28;20024;-85
2022/07/13 02:44:52;;;;;;;3.17;1.60;;;;;;;-148.88;76.48;75261.34;5092800;28;20547;-87
2022/07/13 02:47:17;;;;;;;3.17;1.17;;;;;;;-148.88;76.99;75251.19;5094406;28;20027;-85
2022/07/13 02:49:43;;;;;;;3.08;1.30;;;;;;;-148.88;76.60;75257.28;5094142;28;20024;-86
2022/07/13 02:52:08;;;;;;;3.25;1.70;;;;;;;-148.88;76.30;75259.31;5093659;28;20016;-86
2022/07/13 02:54:34;;;;;;;1.92;1.42;;;;;;;-148.88;75.81;75269.47;5092862;28;20047;-85
2022/07/13 02:56:59;;;;;;;2.72;1.52;;;;;;;-148.88;75.53;75257.28;5092414;28;20023;-87
2022/07/13 02:59:31;;;;;;;2.22;1.50;;;;;;;-148.88;75.10;75257.28;5093592;28;20118;-86
2022/07/13 03:01:57;;;;;;;2.97;1.63;;;;;;;-148.88;75.30;75243.06;5093736;28;20028;-85
2022/07/13 03:04:22;;;;;;;4.07;1.65;;;;;;;-148.88;75.98;75234.94;5093486;28;20395;-87
2022/07/13 03:06:47;;;;;;;5.63;1.90;;;;;;;-148.88;76.17;75249.16;5093587;28;20024;-86
2022/07/13 03:09:12;;;;;;;5.38;1.75;;;;;;;-148.88;75.79;75243.06;5093284;28;20016;-86
2022/07/13 03:11:38;;;;;;;3.65;1.90;;;;;;;-148.88;76.59;75245.09;5094078;28;20471;-86
2022/07/13 03:14:06;;;;;;;3.30;1.70;;;;;;;-148.88;76.86;75241.03;5096002;28;20052;-85
2022/07/13 03:16:32;;;;;;;4.13;1.80;;;;;;;-148.88;76.20;75243.06;5092610;28;20024;-88
2022/07/13 03:18:58;;;;;;;3.30;1.95;;;;;;;-148.88;75.74;75236.97;5092550;28;20107;-84
2022/07/13 03:21:28;;;;;;;3.00;2.08;;;;;;;-148.88;75.23;75228.84;5094492;28;20062;-88
2022/07/13 03:23:57;;;;;;;4.00;2.10;;;;;;;-148.88;76.03;75230.88;5101288;28;20055;-88
2022/07/13 03:26:26;;;;;;;4.22;1.80;;;;;;;-148.88;76.12;75226.81;5103362;28;20020;-87
2022/07/13 03:28:57;;;;;;;5.47;1.90;;;;;;;-148.88;75.87;75220.72;5097433;28;20051;-85
2022/07/13 03:31:28;;;;;;;4.57;2.33;;;;;;;-148.88;75.38;75220.72;5095825;28;20398;-86
2022/07/13 03:33:56;;;;;;;6.15;2.22;;;;;;;-148.88;74.86;75208.53;5094648;28;20020;-85
2022/07/13 03:36:31;;;;;;;2.88;1.90;;;;;;;-148.88;75.13;75212.59;5098796;28;20073;-86
2022/07/13 03:38:56;;;;;;;4.43;2.55;;;;;;;-148.88;74.09;75210.56;5101255;28;20016;-85
2022/07/13 03:41:30;;;;;;;4.50;3.17;;;;;;;-148.88;73.59;75220.72;5099987;28;20024;-85
2022/07/13 03:44:12;;;;;;;5.68;3.05;;;;;;;-148.88;72.77;75218.69;5099495;28;20061;-85
2022/07/13 03:46:38;;;;;;;4.78;3.33;;;;;;;-148.88;71.73;75208.53;5100574;28;20030;-85
2022/07/13 03:49:10;;;;;;;5.88;3.20;;;;;;;-148.88;71.71;75200.41;5099563;28;20106;-85
2022/07/13 03:51:38;;;;;;;5.65;3.47;;;;;;;-148.88;71.47;75196.34;5097866;28;20035;-85
2022/07/13 03:54:05;;;;;;;8.75;3.72;;;;;;;-148.88;70.72;75194.31;5099252;28;20077;-84
2022/07/13 03:56:34;;;;;;;6.88;3.58;;;;;;;-148.88;71.06;75190.25;5096047;28;20082;-85
2022/07/13 03:58:59;;;;;;;6.65;3.78;;;;;;;-148.88;71.03;75188.22;5097066;28;20486;-84
2022/07/13 04:01:32;;;;;;;5.15;3.58;;;;;;;-148.88;71.85;75194.31;5097055;28;20084;-85
2022/07/13 04:03:58;;;;;;;6.53;4.17;;;;;;;-148.88;72.24;75204.47;5095770;28;20045;-83
2022/07/13 04:06:25;;;;;;;4.63;3.50;;;;;;;-148.88;71.44;75184.16;5095316;28;20265;-83
2022/07/13 04:08:50;;;;;;;7.40;3.80;;;;;;;-148.88;71.27;75169.94;5097528;28;20024;-86
2022/07/13 04:11:16;;;;;;;5.90;3.92;;;;;;;-148.88;71.15;75169.94;5096161;28;20028;-85
2022/07/13 04:13:42;;;;;;;6.72;4.28;;;;;;;-148.88;71.25;75174.00;5096937;28;20072;-86
2022/07/13 04:16:07;;;;;;;5.28;3.40;;;;;;;-148.88;70.56;75163.84;5096271;28;20032;-85
2022/07/13 04:18:32;;;;;;;6.03;3.65;;;;;;;-148.88;70.72;75163.84;5096927;28;20028;-86
2022/07/13 04:20:58;;;;;;;4.95;3.67;;;;;;;-148.88;71.13;75165.88;5096805;28;20016;-86
2022/07/13 04:23:23;;;;;;;6.10;3.30;;;;;;;-148.88;71.25;75171.97;5095717;28;20028;-86
2022/07/13 04:25:49;;;;;;;5.82;3.50;;;;;;;-148.88;70.48;75165.88;5095886;28;20023;-86
2022/07/13 04:28:14;;;;;;;6.03;3.65;;;;;;;-148.88;69.60;75157.75;5095579;28;20498;-86
2022/07/13 04:30:39;;;;;;;6.55;3.35;;;;;;;-148.88;70.05;75161.81;5095817;28;20020;-86
2022/07/13 04:33:05;;;;;;;6.88;4.03;;;;;;;-148.88;69.65;75167.91;5096542;28;20393;-86
2022/07/13 04:35:36;;;;;;;4.57;3.47;;;;;;;-148.88;68.18;75139.47;5095140;28;20028;-86
2022/07/13 04:38:01;;;;;;;7.47;4.03;;;;;;;-148.88;68.36;75139.47;5095367;28;20020;-85
2022/07/13 04:40:27;;;;;;;5.50;3.53;;;;;;;-148.88;67.69;75119.16;5096104;28;20030;-86
2022/07/13 04:42:52;;;;;;;5.57;3.53;;;;;;;-148.88;67.88;75127.28;5094958;28;20016;-86
2022/07/13 04:45:19;;;;;;;5.35;3.38;;;;;;;-148.88;68.63;75127.28;5095552;28;20024;-85
2022/07/13 04:47:48;;;;;;;5.43;4.07;;;;;;;-148.88;69.09;75131.34;5095217;28;20115;-86
2022/07/13 04:50:14;;;;;;;7.28;3.83;;;;;;;-148.88;69.48;75123.22;5094785;28;20012;-86
2022/07/13 04:52:40;;;;;;;5.78;3.58;;;;;;;-148.88;69.90;75111.03;5095846;28;20081;-86
2022/07/13 04:55:06;;;;;;;6.07;4.30;;;;;;;-148.88;70.55;75115.09;5095091;28;20039;-88
2022/07/13 04:57:32;;;;;;;6.47;4.00;;;;;;;-148.88;70.64;75129.31;5094965;28;20089;-87
2022/07/13 05:03:19;;;;;;;6.70;3.42;;;;;;;-148.88;70.78;75117.13;5096292;28;20035;-88
2022/07/13 05:05:45;;;;;;;4.63;3.47;;;;;;;-148.88;71.13;75119.16;5094803;28;20202;-87
2022/07/13 05:08:11;;;;;;;5.43;3.47;;;;;;;-148.88;70.86;75119.16;5116037;22;20120;-83
2022/07/13 05:10:36;;;;;;;5.38;3.08;;;;;;;-148.88;70.46;75117.13;5097890;28;20056;-82
2022/07/13 05:19:45;;;;;;;5.18;3.25;;;;;;;-148.88;69.61;75096.81;5075695;28;20116;-82
2022/07/13 05:32:16;;;;;;;6.50;3.47;;;;;;;-148.88;71.73;75098.84;5076256;28;20512;-82
2022/07/13 05:34:42;;;;;;;5.13;3.10;;;;;;;-148.88;72.45;75086.69;5076173;28;20470;-83
2022/07/13 05:37:07;;;;;;;5.07;3.28;;;;;;;-148.88;73.62;75082.63;5075299;28;20048;-83
2022/07/13 05:39:32;;;;;;;5.85;3.03;;;;;;;-148.88;72.78;75090.72;5077800;28;20103;-83
2022/07/13 05:41:58;;;;;;;3.90;2.50;;;;;;;-148.88;72.57;75088.72;5075931;28;20482;-82
2022/07/13 05:44:23;;;;;;;4.13;3.10;;;;;;;-148.88;72.50;75082.63;5076384;28;20028;-83
2022/07/13 05:46:48;;;;;;;5.22;2.80;;;;;;;-148.88;72.90;75086.69;5075673;28;20471;-83
2022/07/13 05:49:13;;;;;;;3.97;2.60;;;;;;;-148.88;72.58;75078.56;5075595;28;20103;-82
2022/07/13 05:51:39;;;;;;;3.70;2.47;;;;;;;-148.88;72.32;75078.56;5077574;28;20520;-83
2022/07/13 05:54:04;;;;;;;3.83;2.60;;;;;;;-148.88;72.44;75078.56;5074656;28;20020;-83
2022/07/13 05:56:30;;;;;;;5.75;2.25;;;;;;;-148.88;72.96;75070.44;5073214;28;20032;-82
2022/07/13 05:58:55;;;;;;;3.67;2.50;;;;;;;-148.88;72.93;75064.34;5074097;28;20024;-82
2022/07/13 06:01:21;;;;;;;4.43;2.60;;;;;;;-148.88;72.25;75058.25;5073477;28;20032;-82
2022/07/13 06:03:46;;;;;;;6.32;2.63;;;;;;;-148.88;72.42;75046.06;5075127;28;20035;-82
2022/07/13 06:06:11;;;;;;;5.63;2.67;;;;;;;-148.88;71.91;75042.00;5074877;28;20475;-82
2022/07/13 06:08:38;;;;;;;5.82;2.28;;;;;;;-148.88;71.13;75037.94;5074921;28;20039;-83
2022/07/13 06:11:03;;;;;;;6.40;2.58;;;;;;;-148.88;71.44;75025.75;5073817;28;20021;-83
2022/07/13 06:13:28;;;;;;;3.40;2.35;;;;;;;-148.88;70.61;75019.66;5075626;28;20054;-82
2022/07/13 06:15:54;;;;;;;5.93;2.22;;;;;;;-148.88;68.84;75015.59;5075213;28;20028;-83
2022/07/13 06:18:19;;;;;;;4.13;2.00;;;;;;;-148.88;68.85;75003.41;5074173;28;20398;-82
2022/07/13 06:20:45;;;;;;;5.78;2.20;;;;;;;-148.88;69.06;74997.31;5074559;28;20036;-83
2022/07/13 06:23:10;;;;;;;3.92;2.58;;;;;;;-148.88;69.71;74989.19;5074689;28;20036;-82
2022/07/13 06:25:39;;;;;;;3.75;2.28;;;;;;;-148.88;69.09;74989.19;5075510;28;20387;-83
2022/07/13 06:28:05;;;;;;;3.05;2.38;;;;;;;-148.88;68.62;74981.06;5075427;28;20017;-84
2022/07/13 06:30:31;;;;;;;4.57;2.28;;;;;;;-148.88;68.56;74974.97;5074244;28;20183;-85
2022/07/13 06:32:56;;;;;;;3.88;2.45;;;;;;;-148.88;68.64;74966.84;5073809;28;20024;-84
2022/07/13 06:35:22;;;;;;;4.35;2.30;;;;;;;-148.88;67.83;74946.53;5074082;28;20029;-84
2022/07/13 06:37:48;;;;;;;5.82;2.25;;;;;;;-148.88;67.01;74936.41;5073247;28;20431;-84
2022/07/13 06:40:13;;;;;;;3.20;2.17;;;;;;;-148.88;65.97;74916.09;5073011;28;20035;-83
2022/07/13 06:42:39;;;;;;;3.28;2.17;;;;;;;-148.88;65.62;74891.72;5073708;28;20024;-83
2022/07/13 06:45:05;;;;;;;5.72;2.30;;;;;;;-148.88;64.71;74881.56;5073905;28;20394;-83
2022/07/13 06:47:30;;;;;;;3.15;2.25;;;;;;;-148.88;64.96;74867.34;5071692;28;20060;-83
2022/07/13 06:49:55;;;;;;;3.67;2.10;;;;;;;-148.88;64.30;74855.16;5074434;28;20099;-83
2022/07/13 06:52:20;;;;;;;4.72;2.20;;;;;;;-148.88;62.92;74853.13;5073129;28;20036;-83
2022/07/13 06:54:46;;;;;;;3.63;2.10;;;;;;;-148.88;64.23;74834.84;5073063;28;20032;-83
2022/07/13 06:57:11;;;;;;;4.65;2.20;;;;;;;-148.88;64.58;74824.69;5071566;28;20123;-83
2022/07/13 06:59:36;;;;;;;4.22;2.13;;;;;;;-148.88;63.70;74818.59;5072209;28;20031;-84
2022/07/13 07:02:02;;;;;;;3.28;2.00;;;;;;;-148.88;58.50;74798.31;5072730;28;20035;-84
2022/07/13 07:04:29;;;;;;;4.03;1.88;;;;;;;-148.88;56.34;74778.00;5072637;28;20056;-84
2022/07/13 07:06:55;;;;;;;5.07;1.83;;;;;;;-148.88;56.92;74765.81;5072525;28;20032;-85
2022/07/13 07:09:20;;;;;;;5.50;2.30;;;;;;;-148.88;56.45;74757.69;5072346;28;20029;-84
2022/07/13 07:11:46;;;;;;;3.58;1.65;;;;;;;-148.88;55.00;74737.38;5071406;28;20020;-84
2022/07/13 07:14:11;;;;;;;5.30;1.73;;;;;;;-148.88;53.01;74729.25;5072707;28;20117;-83
2022/07/13 07:16:37;;;;;;;4.78;1.83;;;;;;;-148.88;50.79;74704.88;5072498;28;20390;-85
2022/07/13 07:19:03;;;;;;;6.68;1.80;;;;;;;-148.88;51.14;74696.78;5072419;28;20024;-84
2022/07/13 07:21:28;;;;;;;3.97;1.50;;;;;;;-148.88;51.02;74686.63;5071243;28;20100;-84
2022/07/13 07:23:53;;;;;;;3.05;1.48;;;;;;;-148.88;52.24;74676.47;5071311;28;20099;-84
2022/07/13 07:26:19;;;;;;;4.10;1.67;;;;;;;-148.88;50.35;74658.19;5071259;28;20166;-85
2022/07/13 07:28:44;;;;;;;4.57;1.67;;;;;;;-148.88;50.52;74625.69;5072613;28;20025;-84
2022/07/13 07:31:10;;;;;;;3.38;1.83;;;;;;;-148.88;50.47;74617.56;5071338;28;20038;-85
2022/07/13 07:33:35;;;;;;;3.35;1.63;;;;;;;-148.88;49.90;74599.28;5072827;28;20347;-84
2022/07/13 07:36:00;;;;;;;2.83;1.70;;;;;;;-148.88;50.82;74597.25;5072659;28;20031;-83
2022/07/13 07:38:25;;;;;;;2.45;1.50;;;;;;;-148.88;48.76;74583.06;5071468;28;20027;-85
2022/07/13 07:41:47;;;;;;;12.40;1.80;;;;;;;-148.88;49.16;74583.06;5072418;28;20025;-83
2022/07/13 07:44:13;;;;;;;4.68;1.63;;;;;;;-148.88;50.10;74572.91;5071343;28;20441;-84
2022/07/13 07:46:38;;;;;;;2.65;1.60;;;;;;;-148.88;50.84;74568.84;5072758;28;20069;-86
2022/07/13 07:49:03;;;;;;;3.28;1.40;;;;;;;-148.88;50.00;74570.88;5071368;28;20457;-84
2022/07/13 07:58:13;;;;;;;4.47;1.80;;;;;;;-148.88;51.59;74544.47;5072590;28;20063;-84
2022/07/13 08:00:40;;;;;;;4.60;1.48;;;;;;;-148.88;51.23;74524.16;5072129;28;20475;-84
2022/07/13 08:03:06;;;;;;;3.70;2.00;;;;;;;-148.88;51.10;74514.00;5072206;28;20028;-83
2022/07/13 08:05:31;;;;;;;4.65;1.70;;;;;;;-148.88;48.54;74497.78;5072103;28;20031;-84
2022/07/13 08:07:57;;;;;;;4.93;1.52;;;;;;;-148.88;49.05;74485.59;5071799;28;20076;-84
2022/07/13 08:10:22;;;;;;;3.67;1.60;;;;;;;-148.88;48.19;74473.41;5072319;28;20391;-84
2022/07/13 08:12:48;;;;;;;3.95;1.73;;;;;;;-148.88;49.17;74455.13;5072085;28;20107;-85
2022/07/13 08:15:13;;;;;;;2.63;1.40;;;;;;;-148.88;47.74;74449.03;5072644;28;20103;-84
2022/07/13 08:17:39;;;;;;;3.13;1.65;;;;;;;-148.88;48.53;74432.78;5072015;28;20020;-84
2022/07/13 08:20:06;;;;;;;4.63;1.73;;;;;;;-148.88;48.58;74408.44;5073614;28;20390;-84
2022/07/13 08:22:31;;;;;;;2.50;1.55;;;;;;;-148.88;49.06;74396.25;5085516;28;20032;-84
2022/07/13 08:24:57;;;;;;;3.22;1.80;;;;;;;-148.88;47.45;74384.06;5080015;28;20438;-85
2022/07/13 08:27:22;;;;;;;3.28;1.48;;;;;;;-148.88;47.62;74361.72;5078627;28;20111;-84
2022/07/13 08:29:48;;;;;;;3.13;1.67;;;;;;;-148.88;47.14;74388.13;5078599;28;20436;-85
2022/07/13 08:32:13;;;;;;;4.63;2.00;;;;;;;-148.88;48.07;74392.19;5077034;28;20021;-84
2022/07/13 08:40:11;;;;;;;2.92;1.63;;;;;;;-148.88;47.81;74371.88;5076247;28;20047;-84
2022/07/13 08:42:37;;;;;;;7.38;1.98;;;;;;;-148.88;47.99;74371.88;5074637;28;20031;-85
2022/07/13 08:45:04;;;;;;;4.13;1.88;;;;;;;-148.88;47.76;74375.94;5075000;28;20055;-84
2022/07/13 08:47:30;;;;;;;4.53;1.50;;;;;;;-148.88;47.68;74384.06;5076028;28;20569;-84
2022/07/13 08:50:03;;;;;;;6.85;1.77;;;;;;;-148.88;49.99;74367.81;5076108;28;20029;-84
2022/07/13 08:52:29;;;;;;;4.53;1.95;;;;;;;-148.88;48.42;74353.59;5075797;28;20051;-85
2022/07/13 08:54:55;;;;;;;4.25;1.77;;;;;;;-148.88;49.29;74345.47;5075916;28;20399;-84
2022/07/13 08:57:20;;;;;;;5.68;2.05;;;;;;;-148.88;49.36;74363.75;5075647;28;20479;-84
2022/07/13 08:59:46;;;;;;;4.40;1.58;;;;;;;-148.88;47.85;74365.78;5075687;28;20467;-85
2022/07/13 09:02:12;;;;;;;5.38;1.70;;;;;;;-148.88;48.63;74347.50;5075127;28;20032;-85
2022/07/13 09:04:39;;;;;;;5.72;1.70;;;;;;;-148.88;48.22;74315.03;5073812;28;20024;-84
2022/07/13 09:07:10;;;;;;;3.08;1.80;;;;;;;-148.88;47.99;74302.84;5074580;28;20032;-84
2022/07/13 09:09:36;;;;;;;3.17;1.70;;;;;;;-148.88;47.94;74276.44;5074060;28;20386;-84
2022/07/13 09:12:30;;;;;;;2.92;1.60;;;;;;;-148.88;47.68;74266.28;5075268;28;20025;-85
2022/07/13 09:15:00;;;;;;;4.13;2.10;;;;;;;-148.88;46.94;74250.03;5067086;28;20036;-84
2022/07/13 09:17:30;;;;;;;5.05;2.00;;;;;;;-148.88;45.97;74205.38;5077725;28;20028;-84
2022/07/13 09:19:56;;;;;;;7.68;1.92;;;;;;;-148.88;45.42;74181.00;5077602;28;20028;-84
2022/07/13 09:22:22;;;;;;;3.00;1.60;;;;;;;-148.88;45.71;74170.84;5077241;28;20077;-84
2022/07/13 09:24:50;;;;;;;3.53;1.50;;;;;;;-148.88;42.13;74132.28;5077952;28;20412;-84
2022/07/13 09:27:16;;;;;;;4.05;1.90;;;;;;;-148.88;43.15;74126.19;5076341;28;20024;-84
2022/07/13 09:29:42;;;;;;;2.90;1.88;;;;;;;-148.88;42.79;74144.47;5077471;28;20024;-84
2022/07/13 09:32:11;;;;;;;4.50;1.92;;;;;;;-148.88;42.86;74105.88;5075747;28;20028;-83
2022/07/13 09:35:06;;;;;;;4.32;2.00;;;;;;;-148.88;42.11;74071.38;5074841;28;20512;-83
2022/07/13 09:37:34;;;;;;;3.55;1.60;;;;;;;-148.88;40.79;74016.56;5066653;28;20040;-83
2022/07/13 09:40:00;;;;;;;4.03;1.88;;;;;;;-148.88;39.99;74022.66;5075899;28;20024;-84
2022/07/13 09:42:31;;;;;;;3.25;1.83;;;;;;;-148.88;40.98;74002.34;5075663;28;20077;-83
2022/07/13 09:47:53;;;;;;;6.15;1.63;;;;;;;-148.88;39.61;73965.78;5074422;28;20113;-83
2022/07/13 09:50:38;;;;;;;3.30;1.50;;;;;;;-148.88;38.63;73963.75;5073694;28;20043;-83
2022/07/13 09:53:23;;;;;;;4.00;1.83;;;;;;;-148.88;38.68;73969.84;5074817;28;20044;-83
2022/07/13 09:55:51;;;;;;;2.38;1.50;;;;;;;-148.88;39.26;73990.16;5074743;28;20021;-83
2022/07/13 09:58:18;;;;;;;3.33;1.73;;;;;;;-148.88;38.92;73980.00;5074277;28;20020;-83
2022/07/13 10:00:44;;;;;;;4.80;1.70;;;;;;;-148.88;38.29;73951.59;5074482;28;20479;-83
2022/07/13 10:03:12;;;;;;;2.10;1.50;;;;;;;-148.88;39.11;73935.34;5074166;28;20162;-83
2022/07/13 10:05:37;;;;;;;3.42;1.63;;;;;;;-148.88;38.28;73927.22;5074607;28;20026;-83
2022/07/13 10:08:03;;;;;;;3.13;1.90;;;;;;;-148.88;38.63;73929.25;5073324;28;20407;-83
2022/07/13 10:10:29;;;;;;;3.25;1.63;;;;;;;-148.88;38.56;73925.19;5074672;28;20408;-83
2022/07/13 10:12:54;;;;;;;4.22;1.73;;;;;;;-148.88;38.36;73929.25;5074650;28;20051;-83
2022/07/13 10:15:21;;;;;;;3.15;1.80;;;;;;;-148.88;38.76;73953.63;5073007;28;20044;-84
2022/07/13 10:17:48;;;;;;;4.47;2.00;;;;;;;-148.88;39.12;73943.47;5072526;28;20403;-83
2022/07/13 10:20:19;;;;;;;2.83;1.60;;;;;;;-148.88;38.37;73896.75;5072662;28;20021;-83
2022/07/13 10:22:46;;;;;;;4.60;1.92;;;;;;;-148.88;38.47;73884.59;5071990;28;20344;-84
2022/07/13 10:25:12;;;;;;;4.53;2.00;;;;;;;-148.88;38.45;73880.53;5073387;28;20036;-82
2022/07/13 10:27:42;;;;;;;3.00;1.85;;;;;;;-148.88;38.42;73872.41;5072187;28;20028;-84
2022/07/13 10:30:23;;;;;;;2.92;1.70;;;;;;;-148.88;39.35;73872.41;5073429;28;20020;-83
2022/07/13 10:32:49;;;;;;;6.13;2.10;;;;;;;-148.88;39.17;73874.44;5072016;28;20024;-84
2022/07/13 10:35:17;;;;;;;2.90;1.60;;;;;;;-148.88;38.66;73906.91;5072134;28;20110;-83
2022/07/13 10:38:00;;;;;;;4.05;1.70;;;;;;;-148.88;38.29;73965.78;5073460;28;20031;-84
2022/07/13 10:40:27;;;;;;;3.17;2.00;;;;;;;-148.88;39.76;73965.78;5072005;28;20025;-83
2022/07/13 10:42:52;;;;;;;2.85;1.52;;;;;;;-148.88;39.30;73921.13;5072529;28;20020;-83
2022/07/13 10:45:40;;;;;;;5.27;1.63;;;;;;;-148.88;39.71;73902.84;5072318;28;20386;-82
2022/07/13 10:48:07;;;;;;;4.03;1.83;;;;;;;-148.88;38.19;73890.69;5073142;28;20058;-83
2022/07/13 10:50:54;;;;;;;3.97;1.52;;;;;;;-148.88;38.73;73917.06;5073538;28;20111;-84
2022/07/13 10:53:21;;;;;;;4.07;1.80;;;;;;;-148.88;38.09;73827.75;5072323;28;20035;-83
2022/07/13 10:55:50;;;;;;;6.10;1.75;;;;;;;-148.88;37.96;73783.06;5072432;28;20035;-83
2022/07/13 10:58:31;;;;;;;3.97;1.70;;;;;;;-148.88;37.32;73754.66;5072067;28;20020;-83
2022/07/13 11:00:58;;;;;;;8.45;1.60;;;;;;;-148.88;37.08;73756.69;5073109;28;20029;-83
2022/07/13 11:03:35;;;;;;;2.58;1.50;;;;;;;-148.88;36.78;73756.69;5071631;28;20024;-83
2022/07/13 11:06:15;;;;;;;3.15;1.65;;;;;;;-148.88;36.34;73795.25;5071688;28;20032;-84
2022/07/13 11:08:42;;;;;;;5.18;2.10;;;;;;;-148.88;36.36;73750.59;5108698;22;20124;-83
2022/07/13 11:11:15;;;;;;;6.50;2.10;;;;;;;-148.88;36.60;73774.94;5093152;28;20481;-86
2022/07/13 11:13:44;;;;;;;3.38;2.00;;;;;;;-148.88;35.96;73712.00;5092996;28;20027;-83
2022/07/13 11:16:10;;;;;;;3.53;1.77;;;;;;;-148.88;36.03;73663.28;5092978;28;20501;-84
2022/07/13 11:18:41;;;;;;;4.65;1.50;;;;;;;-148.88;34.78;73661.25;5093996;28;20036;-84
2022/07/13 11:21:22;;;;;;;4.13;2.00;;;;;;;-148.88;34.92;73691.72;5092512;28;20512;-85
2022/07/13 11:26:55;;;;;;;7.55;1.63;;;;;;;-148.88;35.10;73681.56;5094826;28;20039;-83
2022/07/13 11:29:48;;;;;;;3.90;1.70;;;;;;;-148.88;34.79;73699.84;5094392;28;20149;-82
2022/07/13 11:32:13;;;;;;;3.15;1.50;;;;;;;-148.88;34.95;73742.47;5093222;28;20024;-82
2022/07/13 11:34:41;;;;;;;5.45;1.45;;;;;;;-148.88;34.98;73701.88;5093774;28;20028;-83
2022/07/13 11:37:07;;;;;;;4.47;1.20;;;;;;;-148.88;35.57;73779.00;5093214;28;20161;-83
2022/07/13 11:39:36;;;;;;;2.13;1.40;;;;;;;-148.88;36.44;73803.38;5092051;28;20114;-83
2022/07/13 11:42:05;;;;;;;4.40;1.70;;;;;;;-148.88;36.39;73815.56;5092241;28;20024;-82
2022/07/13 11:44:32;;;;;;;4.50;1.63;;;;;;;-148.88;36.98;73823.69;5092507;28;20024;-83
2022/07/13 11:47:02;;;;;;;2.75;1.55;;;;;;;-148.88;37.76;73846.00;5092531;28;20488;-83
2022/07/13 11:49:28;;;;;;;4.32;1.88;;;;;;;-148.88;37.55;73900.81;5092955;28;20024;-83
2022/07/13 11:51:54;;;;;;;3.38;1.85;;;;;;;-148.88;37.06;73852.09;5092840;28;20539;-82
2022/07/13 11:54:22;;;;;;;2.78;1.60;;;;;;;-148.88;37.40;73831.81;5093115;28;20030;-83
2022/07/13 11:56:56;;;;;;;6.18;1.42;;;;;;;-148.88;36.44;73734.34;5094821;28;20501;-84